createdAt,value
2019-02-17T00:00:48.355Z,3.42
2019-02-17T00:02:55.065Z,4.20
2019-02-17T00:05:00.518Z,2.92
2019-02-17T00:07:09.360Z,4.20
2019-02-17T00:09:16.905Z,4.12
2019-02-17T00:11:23.009Z,3.35
2019-02-17T00:13:28.440Z,3.65
2019-02-17T00:15:35.598Z,3.40
2019-02-17T00:17:41.099Z,4.03
2019-02-17T00:19:47.357Z,3.20
2019-02-17T00:21:53.058Z,3.22
2019-02-17T00:23:59.342Z,4.67
2019-02-17T00:26:04.944Z,4.60
2019-02-17T00:28:12.790Z,3.08
2019-02-17T00:30:18.209Z,4.35
2019-02-17T00:32:26.094Z,3.65
2019-02-17T00:34:32.271Z,3.80
2019-02-17T00:36:38.672Z,4.40
2019-02-17T00:38:44.504Z,3.27
2019-02-17T00:40:53.468Z,3.83
2019-02-17T00:42:58.878Z,2.80
2019-02-17T00:45:05.360Z,3.35
2019-02-17T00:47:10.878Z,3.27
2019-02-17T00:49:16.741Z,3.10
2019-02-17T00:51:22.173Z,2.65
2019-02-17T00:53:29.632Z,3.35
2019-02-17T00:55:35.230Z,2.67
2019-02-17T00:57:40.873Z,3.40
2019-02-17T00:59:53.041Z,3.42
2019-02-17T01:01:58.505Z,3.60
2019-02-17T01:04:04.177Z,3.05
2019-02-17T01:06:09.726Z,3.58
2019-02-17T01:08:15.193Z,3.22
2019-02-17T01:10:20.701Z,2.85
2019-02-17T01:12:27.726Z,3.85
2019-02-17T01:14:33.432Z,3.70
2019-02-17T01:16:39.057Z,3.77
2019-02-17T01:18:53.096Z,3.40
2019-02-17T01:20:58.591Z,3.05
2019-02-17T01:23:04.143Z,4.33
2019-02-17T01:25:12.564Z,2.62
2019-02-17T01:27:18.066Z,4.03
2019-02-17T01:29:23.571Z,3.72
2019-02-17T01:31:30.206Z,3.08
2019-02-17T01:33:37.013Z,2.75
2019-02-17T01:35:42.666Z,3.40
2019-02-17T01:37:49.997Z,3.60
2019-02-17T01:39:55.749Z,3.52
2019-02-17T01:42:04.113Z,3.15
2019-02-17T01:44:12.125Z,3.47
2019-02-17T01:46:17.769Z,3.52
2019-02-17T01:48:23.261Z,3.70
2019-02-17T01:50:31.002Z,2.77
2019-02-17T01:52:36.436Z,4.30
2019-02-17T01:54:42.654Z,3.05
2019-02-17T01:56:49.850Z,3.08
2019-02-17T01:58:55.730Z,3.62
2019-02-17T02:01:01.578Z,4.85
2019-02-17T02:03:13.152Z,3.22
2019-02-17T02:05:18.542Z,3.67
2019-02-17T02:07:24.278Z,3.65
2019-02-17T02:09:29.742Z,3.58
2019-02-17T02:11:35.862Z,5.75
2019-02-17T02:13:41.395Z,3.95
2019-02-17T02:15:46.917Z,3.75
2019-02-17T02:17:52.409Z,5.35
2019-02-17T02:19:58.646Z,3.50
2019-02-17T02:22:13.446Z,3.20
2019-02-17T02:24:18.925Z,3.65
2019-02-17T02:26:24.849Z,2.75
2019-02-17T02:28:30.581Z,3.40
2019-02-17T02:30:36.135Z,3.25
2019-02-17T02:32:42.700Z,3.85
2019-02-17T02:34:54.311Z,3.40
2019-02-17T02:36:59.726Z,3.05
2019-02-17T02:39:06.472Z,2.72
2019-02-17T02:41:12.970Z,2.65
2019-02-17T02:43:19.410Z,3.60
2019-02-17T02:45:24.833Z,2.77
2019-02-17T02:47:31.988Z,3.47
2019-02-17T02:49:37.534Z,3.77
2019-02-17T02:51:43.041Z,2.95
2019-02-17T02:53:50.446Z,3.20
2019-02-17T02:55:57.667Z,3.15
2019-02-17T02:58:03.062Z,3.27
2019-02-17T03:00:09.963Z,3.90
2019-02-17T03:02:15.477Z,3.05
2019-02-17T03:04:20.921Z,4.78
2019-02-17T03:06:45.377Z,3.50
2019-02-17T03:08:50.781Z,3.00
2019-02-17T03:10:56.518Z,3.67
2019-02-17T03:13:02.134Z,3.40
2019-02-17T03:15:07.860Z,3.15
2019-02-17T03:17:13.313Z,3.60
2019-02-17T03:19:18.781Z,2.92
2019-02-17T03:21:24.630Z,2.80
2019-02-17T03:23:30.183Z,2.85
2019-02-17T03:25:41.535Z,4.05
2019-02-17T03:27:47.711Z,2.70
2019-02-17T03:30:04.348Z,3.20
2019-02-17T03:32:00.639Z,2.60
2019-02-17T03:34:06.211Z,3.17
2019-02-17T03:36:11.784Z,3.00
2019-02-17T03:38:20.745Z,2.90
2019-02-17T03:40:26.235Z,3.25
2019-02-17T03:42:31.681Z,3.95
2019-02-17T03:44:37.149Z,4.25
2019-02-17T03:46:42.707Z,3.00
2019-02-17T03:48:48.628Z,3.25
2019-02-17T03:50:58.822Z,3.20
2019-02-17T03:53:04.470Z,4.30
2019-02-17T03:55:10.690Z,3.62
2019-02-17T03:57:18.225Z,3.05
2019-02-17T03:59:23.716Z,2.77
2019-02-17T04:01:29.466Z,3.77
2019-02-17T04:03:34.885Z,3.10
2019-02-17T04:05:40.290Z,2.15
2019-02-17T04:07:45.950Z,3.80
2019-02-17T04:09:51.760Z,3.90
2019-02-17T04:11:57.141Z,2.70
2019-02-17T04:14:02.563Z,3.30
2019-02-17T04:16:08.125Z,3.30
2019-02-17T04:18:13.877Z,2.65
2019-02-17T04:20:19.297Z,3.17
2019-02-17T04:22:24.746Z,4.08
2019-02-17T04:24:30.256Z,3.40
2019-02-17T04:26:35.687Z,3.60
2019-02-17T04:28:41.131Z,3.90
2019-02-17T04:30:46.593Z,3.25
2019-02-17T04:32:52.562Z,3.25
2019-02-17T04:34:58.051Z,4.30
2019-02-17T04:37:03.585Z,3.83
2019-02-17T04:39:09.742Z,3.33
2019-02-17T04:41:15.170Z,4.30
2019-02-17T04:43:21.190Z,2.15
2019-02-17T04:45:26.607Z,3.50
2019-02-17T04:47:32.514Z,3.33
2019-02-17T04:49:37.973Z,4.08
2019-02-17T04:51:43.388Z,3.42
2019-02-17T04:53:48.883Z,2.80
2019-02-17T04:55:54.310Z,3.85
2019-02-17T04:58:00.368Z,3.08
2019-02-17T05:00:06.790Z,2.98
2019-02-17T05:02:16.297Z,3.30
2019-02-17T05:04:21.752Z,3.20
2019-02-17T05:06:27.330Z,3.15
2019-02-17T05:08:32.801Z,2.65
2019-02-17T05:10:38.237Z,4.12
2019-02-17T05:12:44.925Z,4.05
2019-02-17T05:14:50.359Z,3.40
2019-02-17T05:16:55.987Z,3.17
2019-02-17T05:19:02.007Z,4.37
2019-02-17T05:21:10.678Z,2.20
2019-02-17T05:23:16.215Z,3.05
2019-02-17T05:25:24.100Z,3.50
2019-02-17T05:27:29.886Z,3.52
2019-02-17T05:29:35.684Z,3.58
2019-02-17T05:31:41.322Z,3.20
2019-02-17T05:33:47.205Z,2.50
2019-02-17T05:35:52.655Z,2.98
2019-02-17T05:38:01.894Z,3.37
2019-02-17T05:40:08.993Z,3.00
2019-02-17T05:42:14.441Z,3.33
2019-02-17T05:44:20.062Z,3.70
2019-02-17T05:46:25.753Z,2.50
2019-02-17T05:48:31.229Z,2.20
2019-02-17T05:50:37.960Z,3.20
2019-02-17T05:52:43.407Z,3.80
2019-02-17T05:54:50.433Z,3.35
2019-02-17T05:56:57.325Z,3.33
2019-02-17T05:59:02.896Z,3.75
2019-02-17T06:01:08.284Z,2.95
2019-02-17T06:03:14.557Z,2.30
2019-02-17T06:05:20.039Z,2.65
2019-02-17T06:07:25.434Z,3.45
2019-02-17T06:09:30.941Z,2.75
2019-02-17T06:11:36.414Z,3.75
2019-02-17T06:13:42.372Z,3.67
2019-02-17T06:15:49.638Z,3.35
2019-02-17T06:17:55.334Z,3.10
2019-02-17T06:20:00.942Z,3.45
2019-02-17T06:22:06.334Z,4.17
2019-02-17T06:24:12.459Z,3.05
2019-02-17T06:26:18.390Z,2.92
2019-02-17T06:28:29.260Z,4.20
2019-02-17T06:30:36.078Z,2.87
2019-02-17T06:32:41.567Z,3.80
2019-02-17T06:34:53.137Z,3.17
2019-02-17T06:36:58.784Z,5.25
2019-02-17T06:39:05.699Z,3.10
2019-02-17T06:41:11.257Z,3.20
2019-02-17T06:43:16.781Z,2.42
2019-02-17T06:45:22.549Z,1.87
2019-02-17T06:47:32.293Z,2.87
2019-02-17T06:49:41.862Z,2.55
2019-02-17T06:51:47.254Z,3.40
2019-02-17T06:53:54.735Z,2.80
2019-02-17T06:56:27.961Z,2.12
2019-02-17T06:58:33.366Z,2.95
2019-02-17T07:00:44.494Z,2.00
2019-02-17T07:02:50.113Z,3.22
2019-02-17T07:05:20.747Z,2.35
2019-02-17T07:07:28.979Z,3.25
2019-02-17T07:09:34.338Z,2.37
2019-02-17T07:11:40.253Z,2.50
2019-02-17T07:13:45.898Z,2.85
2019-02-17T07:15:52.065Z,2.90
2019-02-17T07:17:59.234Z,2.60
2019-02-17T07:20:09.769Z,2.55
2019-02-17T07:22:15.362Z,2.72
2019-02-17T07:24:20.749Z,2.30
2019-02-17T07:26:26.235Z,2.90
2019-02-17T07:28:31.940Z,3.12
2019-02-17T07:30:37.421Z,3.22
2019-02-17T07:32:42.961Z,3.80
2019-02-17T07:34:48.518Z,3.33
2019-02-17T07:36:54.659Z,3.40
2019-02-17T07:39:00.209Z,3.87
2019-02-17T07:41:05.634Z,3.42
2019-02-17T07:43:11.080Z,2.70
2019-02-17T07:45:16.645Z,3.80
2019-02-17T07:47:23.089Z,3.25
2019-02-17T07:49:28.517Z,4.35
2019-02-17T07:51:42.587Z,4.00
2019-02-17T07:53:48.369Z,4.20
2019-02-17T07:55:53.803Z,3.17
2019-02-17T07:58:05.610Z,3.47
2019-02-17T08:00:11.553Z,3.33
2019-02-17T08:02:16.968Z,3.42
2019-02-17T08:04:22.790Z,3.95
2019-02-17T08:06:27.904Z,2.90
2019-02-17T08:08:33.142Z,4.20
2019-02-17T08:10:41.647Z,3.70
2019-02-17T08:12:47.322Z,4.97
2019-02-17T08:14:52.459Z,4.10
2019-02-17T08:16:58.034Z,3.90
2019-02-17T08:19:03.335Z,4.13
2019-02-17T08:21:09.201Z,3.60
2019-02-17T08:23:14.855Z,3.27
2019-02-17T08:25:22.129Z,4.20
2019-02-17T08:27:27.164Z,4.23
2019-02-17T08:29:33.366Z,3.83
2019-02-17T08:31:38.515Z,3.27
2019-02-17T08:33:44.555Z,3.63
2019-02-17T08:35:50.916Z,4.57
2019-02-17T08:37:57.362Z,4.30
2019-02-17T08:40:02.746Z,4.23
2019-02-17T08:42:07.901Z,3.63
2019-02-17T08:44:14.998Z,4.37
2019-02-17T08:46:20.210Z,4.77
2019-02-17T08:48:27.106Z,4.17
2019-02-17T08:50:33.730Z,4.17
2019-02-17T08:52:39.314Z,3.77
2019-02-17T08:54:44.437Z,2.50
2019-02-17T08:56:52.658Z,3.27
2019-02-17T08:58:57.931Z,4.20
2019-02-17T09:01:03.638Z,3.47
2019-02-17T09:03:11.502Z,4.00
2019-02-17T09:05:17.968Z,4.23
2019-02-17T09:07:23.142Z,4.23
2019-02-17T09:09:28.699Z,3.97
2019-02-17T09:11:34.345Z,3.13
2019-02-17T09:13:40.995Z,2.87
2019-02-17T09:15:47.237Z,3.33
2019-02-17T09:17:52.581Z,2.63
2019-02-17T09:19:58.203Z,3.87
2019-02-17T09:22:03.449Z,3.50
2019-02-17T09:24:09.572Z,4.07
2019-02-17T09:26:14.758Z,2.23
2019-02-17T09:28:28.121Z,3.97
2019-02-17T09:30:33.833Z,3.47
2019-02-17T09:32:39.282Z,3.20
2019-02-17T09:34:44.793Z,3.27
2019-02-17T09:36:50.220Z,4.30
2019-02-17T09:38:55.362Z,3.47
2019-02-17T09:41:02.541Z,2.60
2019-02-17T09:43:07.717Z,3.67
2019-02-17T09:45:13.706Z,3.73
2019-02-17T09:47:30.837Z,3.00
2019-02-17T09:49:35.981Z,2.70
2019-02-17T09:51:41.593Z,3.70
2019-02-17T09:53:48.107Z,3.10
2019-02-17T09:55:55.469Z,3.27
2019-02-17T09:58:00.610Z,2.80
2019-02-17T10:00:05.917Z,3.47
2019-02-17T10:02:11.110Z,2.83
2019-02-17T10:04:16.624Z,3.93
2019-02-17T10:06:22.108Z,3.40
2019-02-17T10:08:27.488Z,2.67
2019-02-17T10:10:32.919Z,3.17
2019-02-17T10:12:38.800Z,3.30
2019-02-17T10:14:45.423Z,2.70
2019-02-17T10:16:51.660Z,3.33
2019-02-17T10:18:57.602Z,2.57
2019-02-17T10:21:03.346Z,3.90
2019-02-17T10:23:08.971Z,3.60
2019-02-17T10:25:14.470Z,3.00
2019-02-17T10:27:19.797Z,2.83
2019-02-17T10:29:25.330Z,2.60
2019-02-17T10:31:31.658Z,3.23
2019-02-17T10:33:36.986Z,3.13
2019-02-17T10:35:42.390Z,3.47
2019-02-17T10:37:48.014Z,4.00
2019-02-17T10:39:53.736Z,2.77
2019-02-17T10:42:00.150Z,3.60
2019-02-17T10:44:09.158Z,2.80
2019-02-17T10:46:15.556Z,2.90
2019-02-17T10:48:21.018Z,3.17
2019-02-17T10:50:28.161Z,2.93
2019-02-17T10:52:33.413Z,2.47
2019-02-17T10:54:38.658Z,2.47
2019-02-17T10:56:44.037Z,2.63
2019-02-17T10:58:49.193Z,3.20
2019-02-17T11:00:54.787Z,2.77
2019-02-17T11:03:10.218Z,2.87
2019-02-17T11:05:15.570Z,2.57
2019-02-17T11:07:21.037Z,3.47
2019-02-17T11:09:26.405Z,3.03
2019-02-17T11:11:33.701Z,3.33
2019-02-17T11:13:39.018Z,2.93
2019-02-17T11:15:44.259Z,4.77
2019-02-17T11:17:50.461Z,2.50
2019-02-17T11:19:56.278Z,3.37
2019-02-17T11:22:04.848Z,3.40
2019-02-17T11:24:11.225Z,3.10
2019-02-17T11:26:17.426Z,3.87
2019-02-17T11:28:24.637Z,3.90
2019-02-17T11:30:30.939Z,4.60
2019-02-17T11:32:37.224Z,4.00
2019-02-17T11:34:43.143Z,4.70
2019-02-17T11:36:49.779Z,4.63
2019-02-17T11:38:57.822Z,4.60
2019-02-17T11:41:06.535Z,6.00
2019-02-17T11:43:11.890Z,4.70
2019-02-17T11:45:17.701Z,4.60
2019-02-17T11:47:25.266Z,4.20
2019-02-17T11:49:30.530Z,4.40
2019-02-17T11:51:36.327Z,4.20
2019-02-17T11:53:41.590Z,5.37
2019-02-17T11:55:47.076Z,5.80
2019-02-17T11:57:52.217Z,4.90
2019-02-17T11:59:57.593Z,5.13
2019-02-17T12:02:03.778Z,5.40
2019-02-17T12:04:09.377Z,4.93
2019-02-17T12:06:14.577Z,5.37
2019-02-17T12:08:21.349Z,5.33
2019-02-17T12:10:26.958Z,5.07
2019-02-17T12:12:33.158Z,5.40
2019-02-17T12:14:38.381Z,5.20
2019-02-17T12:16:43.907Z,4.80
2019-02-17T12:18:52.831Z,5.43
2019-02-17T12:21:16.923Z,5.50
2019-02-17T12:23:27.038Z,5.73
2019-02-17T12:25:49.797Z,5.47
2019-02-17T12:28:00.570Z,5.67
2019-02-17T12:30:09.300Z,6.83
2019-02-17T12:32:23.682Z,6.20
2019-02-17T12:34:29.133Z,6.30
2019-02-17T12:36:34.581Z,5.80
2019-02-17T12:38:40.269Z,5.53
2019-02-17T12:40:45.398Z,5.50
2019-02-17T12:42:51.205Z,5.00
2019-02-17T12:44:57.151Z,4.70
2019-02-17T12:47:02.405Z,4.93
2019-02-17T12:49:08.070Z,4.83
2019-02-17T12:51:13.439Z,5.60
2019-02-17T12:53:20.458Z,4.97
2019-02-17T12:55:25.974Z,4.17
2019-02-17T12:57:32.460Z,5.00
2019-02-17T12:59:37.773Z,5.00
2019-02-17T13:01:45.297Z,4.70
2019-02-17T13:03:49.857Z,5.00
2019-02-17T13:05:55.303Z,5.97
2019-02-17T13:08:00.457Z,4.30
2019-02-17T13:10:06.030Z,5.13
2019-02-17T13:12:11.246Z,3.97
2019-02-17T13:14:16.472Z,4.57
2019-02-17T13:16:29.477Z,4.17
2019-02-17T13:18:34.834Z,4.57
2019-02-17T13:20:40.234Z,4.20
2019-02-17T13:22:45.565Z,4.93
2019-02-17T13:24:50.978Z,5.20
2019-02-17T13:26:56.156Z,4.20
2019-02-17T13:29:03.457Z,4.67
2019-02-17T13:31:09.309Z,4.57
2019-02-17T13:33:14.653Z,4.43
2019-02-17T13:35:21.296Z,4.60
2019-02-17T13:37:26.527Z,4.77
2019-02-17T13:39:31.685Z,4.33
2019-02-17T13:41:36.966Z,4.13
2019-02-17T13:43:42.421Z,4.67
2019-02-17T13:45:48.178Z,4.40
2019-02-17T13:47:54.363Z,5.13
2019-02-17T13:49:59.845Z,4.90
2019-02-17T13:52:04.983Z,3.70
2019-02-17T13:54:10.823Z,4.87
2019-02-17T13:56:16.038Z,4.33
2019-02-17T13:58:21.563Z,4.40
2019-02-17T14:00:26.868Z,4.30
2019-02-17T14:02:32.306Z,4.30
2019-02-17T14:04:37.649Z,4.87
2019-02-17T14:06:43.187Z,4.10
2019-02-17T14:08:48.522Z,4.00
2019-02-17T14:10:53.973Z,4.43
2019-02-17T14:13:05.430Z,4.23
2019-02-17T14:15:12.341Z,4.17
2019-02-17T14:17:17.742Z,3.70
2019-02-17T14:19:22.873Z,3.97
2019-02-17T14:21:28.016Z,3.60
2019-02-17T14:23:33.898Z,3.93
2019-02-17T14:25:39.262Z,4.10
2019-02-17T14:27:44.650Z,3.80
2019-02-17T14:29:49.878Z,3.70
2019-02-17T14:31:56.465Z,4.67
2019-02-17T14:34:01.710Z,3.70
2019-02-17T14:36:07.341Z,3.70
2019-02-17T14:38:12.518Z,3.37
2019-02-17T14:40:18.076Z,3.23
2019-02-17T14:42:24.323Z,3.50
2019-02-17T14:44:34.707Z,5.40
2019-02-17T14:46:46.629Z,3.70
2019-02-17T14:48:51.484Z,4.30
2019-02-17T14:50:58.183Z,3.30
2019-02-17T14:53:03.509Z,4.20
2019-02-17T14:55:08.747Z,7.10
2019-02-17T14:57:15.922Z,5.10
2019-02-17T14:59:21.122Z,7.17
2019-02-17T15:01:26.962Z,6.37
2019-02-17T15:03:32.538Z,6.20
2019-02-17T15:05:37.689Z,5.33
2019-02-17T15:07:43.149Z,4.90
2019-02-17T15:09:49.042Z,4.27
2019-02-17T15:11:54.251Z,4.27
2019-02-17T15:13:59.927Z,5.00
2019-02-17T15:16:11.254Z,5.27
2019-02-17T15:18:16.639Z,4.40
2019-02-17T15:20:22.230Z,3.12
2019-02-17T15:22:27.945Z,3.35
2019-02-17T15:24:33.373Z,3.30
2019-02-17T15:26:39.397Z,3.92
2019-02-17T15:28:51.227Z,3.17
2019-02-17T15:30:54.736Z,3.37
2019-02-17T15:33:03.977Z,3.30
2019-02-17T15:35:08.003Z,3.35
2019-02-17T15:37:13.541Z,3.72
2019-02-17T15:39:19.617Z,2.45
2019-02-17T15:41:25.211Z,2.77
2019-02-17T15:43:31.081Z,2.67
2019-02-17T15:45:37.677Z,3.08
2019-02-17T15:47:45.189Z,3.02
2019-02-17T15:49:50.876Z,3.85
2019-02-17T15:51:56.481Z,4.78
2019-02-17T15:54:02.046Z,4.45
2019-02-17T15:56:08.194Z,3.50
2019-02-17T15:58:14.679Z,3.45
2019-02-17T16:00:20.481Z,4.80
2019-02-17T16:02:25.948Z,4.20
2019-02-17T16:04:31.565Z,3.17
2019-02-17T16:06:37.190Z,5.47
2019-02-17T16:08:42.997Z,2.90
2019-02-17T16:10:48.756Z,3.33
2019-02-17T16:12:57.322Z,4.37
2019-02-17T16:15:02.925Z,3.37
2019-02-17T16:17:08.923Z,3.98
2019-02-17T16:19:16.094Z,2.83
2019-02-17T16:21:23.528Z,3.72
2019-02-17T16:23:28.809Z,3.27
2019-02-17T16:25:34.244Z,5.17
2019-02-17T16:27:40.762Z,4.35
2019-02-17T16:29:47.014Z,3.60
2019-02-17T16:31:52.949Z,4.00
2019-02-17T16:33:58.810Z,3.20
2019-02-17T16:36:04.238Z,4.87
2019-02-17T16:38:11.411Z,4.55
2019-02-17T16:40:16.941Z,4.72
2019-02-17T16:42:22.565Z,4.65
2019-02-17T16:44:28.143Z,7.33
2019-02-17T16:46:33.662Z,5.28
2019-02-17T16:48:40.277Z,5.92
2019-02-17T16:50:45.740Z,4.75
2019-02-17T16:52:51.138Z,5.97
2019-02-17T16:54:56.675Z,3.92
2019-02-17T16:57:02.342Z,4.70
2019-02-17T16:59:08.562Z,3.62
2019-02-17T17:01:14.541Z,4.05
2019-02-17T17:03:20.853Z,3.87
2019-02-17T17:05:26.510Z,6.92
2019-02-17T17:07:32.083Z,5.40
2019-02-17T17:09:45.837Z,6.10
2019-02-17T17:11:51.457Z,7.30
2019-02-17T17:13:57.634Z,4.65
2019-02-17T17:16:03.350Z,4.03
2019-02-17T17:18:09.726Z,4.35
2019-02-17T17:20:15.596Z,6.05
2019-02-17T17:22:21.707Z,4.35
2019-02-17T17:24:27.166Z,4.50
2019-02-17T17:26:34.337Z,4.22
2019-02-17T17:28:41.815Z,5.95
2019-02-17T17:30:47.411Z,5.15
2019-02-17T17:32:53.171Z,4.55
2019-02-17T17:34:59.542Z,5.10
2019-02-17T17:37:06.688Z,6.53
2019-02-17T17:39:12.586Z,10.65
2019-02-17T17:41:18.246Z,43.60
2019-02-17T17:43:24.458Z,53.17
2019-02-17T17:45:29.918Z,30.23
2019-02-17T17:47:35.703Z,14.95
2019-02-17T17:49:41.101Z,10.70
2019-02-17T17:51:47.025Z,8.25
2019-02-17T17:53:59.321Z,6.47
2019-02-17T17:56:04.810Z,18.50
2019-02-17T17:58:10.218Z,22.27
2019-02-17T18:00:17.698Z,23.52
2019-02-17T18:02:23.172Z,17.87
2019-02-17T18:04:29.762Z,10.85
2019-02-17T18:06:35.437Z,9.08
2019-02-17T18:08:43.941Z,11.08
2019-02-17T18:10:50.150Z,18.65
2019-02-17T18:12:55.889Z,16.37
2019-02-17T18:15:01.314Z,11.80
2019-02-17T18:17:09.858Z,10.65
2019-02-17T18:19:15.521Z,12.88
2019-02-17T18:21:21.110Z,15.10
2019-02-17T18:23:26.703Z,13.18
2019-02-17T18:25:41.277Z,15.00
2019-02-17T18:27:49.440Z,12.65
2019-02-17T18:29:54.942Z,11.85
2019-02-17T18:32:01.266Z,10.98
2019-02-17T18:34:06.730Z,11.68
2019-02-17T18:36:12.330Z,8.00
2019-02-17T18:38:18.841Z,8.60
2019-02-17T18:40:24.697Z,8.18
2019-02-17T18:42:30.137Z,11.10
2019-02-17T18:44:36.974Z,11.03
2019-02-17T18:46:42.842Z,24.25
2019-02-17T18:48:49.013Z,47.48
2019-02-17T18:50:59.082Z,56.18
2019-02-17T18:53:01.795Z,38.40
2019-02-17T18:55:08.391Z,50.55
2019-02-17T18:57:14.209Z,43.15
2019-02-17T18:59:19.959Z,35.52
2019-02-17T19:01:28.343Z,11.20
2019-02-17T19:03:33.963Z,14.63
2019-02-17T19:05:40.381Z,13.68
2019-02-17T19:07:46.251Z,13.58
2019-02-17T19:09:52.041Z,13.35
2019-02-17T19:11:58.637Z,15.55
2019-02-17T19:14:04.281Z,9.80
2019-02-17T19:16:28.581Z,9.68
2019-02-17T19:18:34.676Z,7.33
2019-02-17T19:20:42.895Z,6.75
2019-02-17T19:22:50.167Z,6.42
2019-02-17T19:24:56.366Z,7.33
2019-02-17T19:27:02.762Z,6.12
2019-02-17T19:29:11.813Z,7.58
2019-02-17T19:31:20.180Z,11.30
2019-02-17T19:33:27.946Z,9.25
2019-02-17T19:35:41.516Z,8.68
2019-02-17T19:37:41.043Z,9.95
2019-02-17T19:39:47.143Z,10.08
2019-02-17T19:42:10.247Z,10.00
2019-02-17T19:44:18.743Z,11.78
2019-02-17T19:46:24.591Z,11.38
2019-02-17T19:48:30.713Z,13.32
2019-02-17T19:50:38.663Z,16.20
2019-02-17T19:52:44.154Z,15.60
2019-02-17T19:55:01.497Z,17.12
2019-02-17T19:57:06.966Z,20.55
2019-02-17T19:59:15.634Z,15.75
2019-02-17T20:01:21.226Z,16.02
2019-02-17T20:03:44.311Z,14.05
2019-02-17T20:05:53.561Z,15.25
2019-02-17T20:08:01.801Z,12.45
2019-02-17T20:10:09.378Z,9.80
2019-02-17T20:12:15.401Z,11.45
2019-02-17T20:14:21.382Z,12.00
2019-02-17T20:16:27.141Z,11.53
2019-02-17T20:18:32.809Z,12.00
2019-02-17T20:20:38.547Z,10.43
2019-02-17T20:22:43.972Z,9.30
2019-02-17T20:24:49.800Z,11.45
2019-02-17T20:26:55.417Z,7.78
2019-02-17T20:29:00.947Z,9.33
2019-02-17T20:31:06.987Z,9.20
2019-02-17T20:33:12.703Z,8.85
2019-02-17T20:35:18.636Z,7.55
2019-02-17T20:37:25.430Z,6.75
2019-02-17T20:39:31.451Z,8.28
2019-02-17T20:41:37.193Z,7.67
2019-02-17T20:43:42.593Z,7.20
2019-02-17T20:45:54.238Z,7.28
2019-02-17T20:48:00.395Z,6.53
2019-02-17T20:50:06.126Z,6.08
2019-02-17T20:52:17.720Z,11.22
2019-02-17T20:54:23.461Z,16.82
2019-02-17T20:56:29.043Z,17.52
2019-02-17T20:58:36.290Z,13.28
2019-02-17T21:00:43.585Z,15.48
2019-02-17T21:02:50.363Z,17.32
2019-02-17T21:04:59.222Z,14.30
2019-02-17T21:07:05.308Z,13.35
2019-02-17T21:09:11.105Z,9.45
2019-02-17T21:11:16.965Z,9.78
2019-02-17T21:13:23.335Z,7.35
2019-02-17T21:15:29.716Z,7.87
2019-02-17T21:17:36.272Z,6.37
2019-02-17T21:19:42.144Z,5.97
2019-02-17T21:21:47.674Z,4.92
2019-02-17T21:24:11.705Z,4.25
2019-02-17T21:26:17.535Z,4.55
2019-02-17T21:28:23.482Z,4.53
2019-02-17T21:30:33.375Z,3.40
2019-02-17T21:32:39.223Z,4.50
2019-02-17T21:34:44.918Z,5.00
2019-02-17T21:36:50.662Z,4.62
2019-02-17T21:38:58.845Z,4.45
2019-02-17T21:41:09.342Z,4.85
2019-02-17T21:43:12.094Z,4.95
2019-02-17T21:45:20.835Z,4.78
2019-02-17T21:47:27.806Z,4.75
2019-02-17T21:49:37.765Z,3.83
2019-02-17T21:51:43.582Z,4.35
2019-02-17T21:53:50.725Z,4.08
2019-02-17T21:55:58.114Z,4.05
2019-02-17T21:58:03.995Z,5.05
2019-02-17T22:00:13.255Z,4.70
2019-02-17T22:02:22.651Z,5.33
2019-02-17T22:04:28.170Z,4.00
2019-02-17T22:06:36.124Z,4.30
2019-02-17T22:08:43.384Z,4.72
2019-02-17T22:10:49.392Z,3.77
2019-02-17T22:12:58.222Z,3.55
2019-02-17T22:15:07.513Z,5.10
2019-02-17T22:17:13.483Z,4.47
2019-02-17T22:19:20.914Z,4.50
2019-02-17T22:21:28.676Z,3.83
2019-02-17T22:23:39.863Z,4.05
2019-02-17T22:25:45.205Z,3.67
2019-02-17T22:28:00.954Z,3.17
2019-02-17T22:30:09.551Z,4.47
2019-02-17T22:32:17.230Z,3.40
2019-02-17T22:34:23.899Z,3.17
2019-02-17T22:36:32.110Z,3.70
2019-02-17T22:38:38.203Z,4.30
2019-02-17T22:40:56.238Z,3.22
2019-02-17T22:43:03.800Z,3.33
2019-02-17T22:45:09.861Z,4.22
2019-02-17T22:47:16.226Z,3.37
2019-02-17T22:49:25.935Z,3.40
2019-02-17T22:51:32.794Z,3.22
2019-02-17T22:53:43.675Z,5.87
2019-02-17T22:55:49.811Z,3.92
2019-02-17T22:57:55.899Z,3.70
2019-02-17T23:00:01.754Z,4.30
2019-02-17T23:02:07.502Z,3.83
2019-02-17T23:04:13.609Z,3.80
2019-02-17T23:06:22.906Z,3.37
2019-02-17T23:08:28.330Z,3.05
2019-02-17T23:10:35.149Z,3.92
2019-02-17T23:12:41.718Z,3.30
2019-02-17T23:14:47.995Z,3.17
2019-02-17T23:16:57.757Z,3.27
2019-02-17T23:19:05.535Z,3.47
2019-02-17T23:21:12.298Z,3.30
2019-02-17T23:23:18.693Z,3.00
2019-02-17T23:25:25.174Z,4.10
2019-02-17T23:27:30.925Z,2.60
2019-02-17T23:29:36.914Z,3.72
2019-02-17T23:31:45.229Z,3.47
2019-02-17T23:33:50.792Z,4.35
2019-02-17T23:35:56.966Z,3.72
2019-02-17T23:38:02.710Z,3.58
2019-02-17T23:40:09.369Z,3.58
2019-02-17T23:42:15.086Z,3.65
2019-02-17T23:44:23.426Z,3.17
2019-02-17T23:46:28.954Z,3.25
2019-02-17T23:48:36.222Z,2.50
2019-02-17T23:50:42.895Z,2.60
2019-02-17T23:52:48.521Z,3.67
2019-02-17T23:54:54.187Z,2.95
2019-02-17T23:57:00.461Z,2.80
2019-02-17T23:59:06.253Z,2.77
